TimeCDT,TemperatureF,Dew PointF,Humidity,Sea Level PressureIn,VisibilityMPH,Wind Direction,Wind SpeedMPH,Gust SpeedMPH,PrecipitationIn,Events,Conditions,WindDirDegrees,DateUTC
12:54 AM,51.1,48.0,89,30.06,10.0,ESE,3.5,-,N/A,,Clear,120,2013-09-14 05:54:00
1:54 AM,50.0,46.9,89,30.06,10.0,South,3.5,-,N/A,,Clear,190,2013-09-14 06:54:00
2:54 AM,48.9,46.9,93,30.06,10.0,Calm,Calm,-,N/A,,Clear,0,2013-09-14 07:54:00
3:54 AM,48.9,46.0,90,30.06,10.0,South,3.5,-,N/A,,Clear,190,2013-09-14 08:54:00
4:54 AM,48.0,46.0,93,30.06,10.0,Calm,Calm,-,N/A,,Clear,0,2013-09-14 09:54:00
5:54 AM,52.0,48.9,89,30.05,10.0,Calm,Calm,-,N/A,,Clear,0,2013-09-14 10:54:00
6:54 AM,53.1,50.0,89,30.04,10.0,SSE,4.6,-,N/A,,Partly Cloudy,150,2013-09-14 11:54:00
7:54 AM,54.0,51.1,90,30.05,10.0,Calm,Calm,-,N/A,,Clear,0,2013-09-14 12:54:00
8:54 AM,57.9,53.1,84,30.05,10.0,SSE,5.8,-,N/A,,Mostly Cloudy,150,2013-09-14 13:54:00
9:54 AM,64.9,52.0,63,30.04,10.0,SSE,10.4,-,N/A,,Overcast,160,2013-09-14 14:54:00
10:54 AM,69.1,50.0,51,30.03,10.0,South,12.7,20.7,N/A,,Mostly Cloudy,170,2013-09-14 15:54:00
11:54 AM,71.1,51.1,49,30.00,10.0,South,13.8,20.7,0.01,,Clear,170,2013-09-14 16:54:00
12:54 PM,73.9,52.0,46,29.98,10.0,South,12.7,24.2,N/A,,Clear,170,2013-09-14 17:54:00
1:54 PM,75.0,52.0,44,29.95,10.0,South,13.8,23.0,N/A,,Partly Cloudy,180,2013-09-14 18:54:00
2:54 PM,75.0,53.1,46,29.93,10.0,South,15.0,23.0,N/A,,Clear,170,2013-09-14 19:54:00
3:54 PM,75.0,53.1,46,29.91,10.0,South,9.2,17.3,0.00,,Mostly Cloudy,170,2013-09-14 20:54:00
4:54 PM,73.9,55.9,53,29.89,10.0,South,8.1,-,0.00,Rain,Light Rain,180,2013-09-14 21:54:00
5:54 PM,71.1,59.0,66,29.88,10.0,SSE,4.6,-,0.00,Rain,Light Rain,150,2013-09-14 22:54:00
6:54 PM,71.1,57.0,61,29.86,10.0,SE,9.2,-,0.00,,Partly Cloudy,140,2013-09-14 23:54:00
7:54 PM,68.0,57.0,68,29.84,10.0,SE,5.8,-,N/A,,Clear,140,2013-09-15 00:54:00
8:54 PM,64.0,57.0,78,29.84,10.0,SSE,4.6,-,N/A,,Clear,150,2013-09-15 01:54:00
9:54 PM,62.1,55.9,80,29.85,10.0,South,3.5,-,N/A,,Partly Cloudy,170,2013-09-15 02:54:00
10:54 PM,64.9,57.0,75,29.84,10.0,SSE,4.6,-,N/A,,Overcast,160,2013-09-15 03:54:00
11:54 PM,68.0,55.9,65,29.83,10.0,South,6.9,-,N/A,,Overcast,170,2013-09-15 04:54:00